RJSFRJGG

Guest
Details From RJSF - Fukushima
To RJGG - CHUBU CENTRAIR INTL
Flight Number -
Tags generated
Created
Modified
Stats Distance 229 nm / 425 km
Max Altitude 28,800 ft / 8,778 m
Waypoints 4
Social Downloads 0
Likes 0
Share VATSIM

Download

Looking for another format? Having issues loading an existing format? Contact us
Advertisement - Login to hide

Notes

Basic altitude profile: - Ascent Rate: 2500ft/min - Ascent Speed: 250kts - Cruise Altitude: 35000ft - Cruise Speed: 420kts - Descent Rate: 1500ft/min - Descent Speed: 250kts Options: - Use NATs: yes - Use PACOTS: yes - Use low airways: yes - Use high airways: yes

Route

RJSF AY W18 CHINO RJGG

ID Type Via Altitude Latitude Longitude Leg Dist Tot Dist Heading (true) Name
O RJSF APT - 0 ft / 0 m 37.22743˚ 140.42797˚ - 0 nm - Fukushima
AY NDB - 28,800 ft / 8,778 m 36.16394˚ 139.31103˚ 83 nm 83 nm 220° / 220° KUMAGAYA NDB
CHINO FIX W18 (AWY-HI) 22,700 ft / 6,919 m 35.88430˚ 138.56549˚ 39 nm 123 nm 245° / 245° -
O RJGG APT - 0 ft / 0 m 34.85841˚ 136.80541˚ 105 nm 229 nm 235° / 234° CHUBU CENTRAIR INTL

Altitude Profile

Advertisement - Login to hide

Weather


0- 5 10 15 20 25 30 35+ Temperature / ° C

Clouds and Precipitation
Forecast for 2017-12-13 18:00 UTC. Updated 4 minutes ago

Ground ~20,000 ft ~40,000 ft Winds

RJSF

Details ICAO RJSF (FKS)
Name Fukushima
Region Japan
Timezone Asia/Tokyo (UTC+9.0)
Stats Elevation 1,220 ft / 372 m (AMSL)
Location 37.227429° 140.427974°
Runways 1
Magnetic Variation 7.868° W

METAR

Not found

TAF

TAF RJSF 131105Z 1312/1418 35008KT 9999 FEW020 SCT040 TEMPO 1400/1406 32020G30KT

Decode

Departure Runways

ID Width Length Bearing (true) Bearing (mag) Surface Threshold Offset Overrun Length
01 197 ft / 60 m 8,219 ft / 2,505 m 2.19° 10.06° Asphalt 0 ft / 0 m 197 ft / 60 m
19 197 ft / 60 m 8,219 ft / 2,505 m 182.19° 190.06° Asphalt 0 ft / 0 m 197 ft / 60 m

RJGG

Details ICAO RJGG (NGO)
Name CHUBU CENTRAIR INTL
Region Japan
Timezone Asia/Tokyo (UTC+9.0)
Stats Elevation 15 ft / 5 m (AMSL)
Location 34.858414° 136.805408°
Runways 1
Magnetic Variation 7.581° W

METAR

RJGG 131700Z 28017KT 9999 VCSH FEW015 BKN070 04/01 Q1022 NOSIG

Decode

TAF

TAF RJGG 131105Z 1312/1418 32020KT 9999 FEW020 SCT040

Decode

Destination Runways

ID Width Length Bearing (true) Bearing (mag) Surface Threshold Offset Overrun Length
18 197 ft / 60 m 11,511 ft / 3,509 m 168.81° 176.39° Asphalt 0 ft / 0 m 197 ft / 60 m
36 197 ft / 60 m 11,511 ft / 3,509 m 348.81° 356.39° Asphalt 0 ft / 0 m 197 ft / 60 m

Approach Navaids

Runway Type Ident Frequency Range Bearing (true) Bearing (mag) Slope Elevation
18 Localiser ICY 109.70 MHz 25 nm / 46 km 168.79° 176.37° - 12 ft / 4 m (AMSL)
18 Glidescope ICY 109.70 MHz 25 nm / 46 km 176.00° 183.58° 3.00° 12 ft / 4 m (AMSL)
36 Localiser ICX 111.90 MHz 25 nm / 46 km 348.79° 356.37° - 12 ft / 4 m (AMSL)
36 Glidescope ICX 111.90 MHz 25 nm / 46 km 356.00° 3.58° 3.00° 12 ft / 4 m (AMSL)